createdAt,value
2023-01-29T00:02:09.886Z,20.67
2023-01-29T00:04:36.750Z,20.35
2023-01-29T00:07:03.593Z,21.02
2023-01-29T00:09:31.963Z,20.77
2023-01-29T00:11:58.968Z,21.13
2023-01-29T00:14:27.557Z,19.17
2023-01-29T00:16:54.763Z,19.83
2023-01-29T00:19:21.808Z,20.60
2023-01-29T00:21:48.714Z,20.23
2023-01-29T00:24:15.570Z,19.65
2023-01-29T00:26:43.282Z,20.45
2023-01-29T00:29:10.358Z,20.25
2023-01-29T00:31:38.210Z,19.58
2023-01-29T00:34:05.080Z,19.70
2023-01-29T00:36:32.004Z,20.25
2023-01-29T00:39:02.469Z,20.10
2023-01-29T00:41:50.177Z,20.83
2023-01-29T00:44:36.705Z,19.90
2023-01-29T00:47:04.094Z,19.90
2023-01-29T00:49:31.224Z,19.10
2023-01-29T00:52:16.883Z,19.63
2023-01-29T00:54:43.769Z,20.05
2023-01-29T00:57:10.591Z,17.92
2023-01-29T00:59:37.745Z,19.20
2023-01-29T01:02:23.053Z,20.90
2023-01-29T01:04:50.037Z,21.17
2023-01-29T01:07:16.944Z,19.55
2023-01-29T01:10:02.268Z,19.80
2023-01-29T01:12:29.564Z,18.58
2023-01-29T01:14:56.446Z,18.83
2023-01-29T01:17:23.600Z,19.73
2023-01-29T01:19:50.641Z,19.95
2023-01-29T01:22:17.672Z,20.48
2023-01-29T01:24:44.619Z,19.67
2023-01-29T01:27:12.147Z,19.67
2023-01-29T01:29:39.074Z,19.02
2023-01-29T01:32:06.440Z,20.23
2023-01-29T01:34:33.455Z,18.45
2023-01-29T01:37:00.448Z,17.45
2023-01-29T01:39:27.327Z,19.33
2023-01-29T01:41:54.251Z,19.35
2023-01-29T01:44:59.442Z,18.60
2023-01-29T01:47:34.447Z,17.52
2023-01-29T01:50:08.837Z,18.98
2023-01-29T01:52:40.432Z,19.30
2023-01-29T01:55:08.603Z,20.52
2023-01-29T01:57:36.117Z,19.85
2023-01-29T02:00:11.149Z,19.20
2023-01-29T02:02:59.323Z,18.02
2023-01-29T02:05:45.492Z,19.15
2023-01-29T02:08:31.955Z,19.50
2023-01-29T02:10:58.887Z,20.05
2023-01-29T02:13:26.587Z,19.90
2023-01-29T02:15:53.453Z,19.45
2023-01-29T02:18:21.804Z,17.73
2023-01-29T02:21:01.137Z,20.80
2023-01-29T02:23:56.993Z,20.00
2023-01-29T02:27:01.399Z,19.58
2023-01-29T02:29:30.548Z,19.58
2023-01-29T02:32:21.838Z,19.42
2023-01-29T02:37:50.258Z,19.40
2023-01-29T02:40:31.368Z,19.70
2023-01-29T02:43:32.805Z,19.77
2023-01-29T02:46:16.500Z,19.25
2023-01-29T02:48:51.877Z,20.25
2023-01-29T02:51:24.280Z,18.98
2023-01-29T02:54:31.847Z,19.52
2023-01-29T02:57:16.226Z,18.63
2023-01-29T03:00:20.043Z,19.52
2023-01-29T03:02:54.420Z,19.67
2023-01-29T03:05:34.107Z,19.75
2023-01-29T03:08:10.150Z,20.90
2023-01-29T03:10:42.156Z,19.25
2023-01-29T03:13:16.521Z,18.45
2023-01-29T03:15:51.182Z,19.50
2023-01-29T03:18:20.683Z,19.80
2023-01-29T03:20:54.184Z,19.48
2023-01-29T03:23:51.625Z,20.15
2023-01-29T03:26:40.551Z,20.85
2023-01-29T03:29:27.527Z,20.40
2023-01-29T03:32:06.654Z,22.33
2023-01-29T03:34:42.055Z,19.75
2023-01-29T03:37:15.778Z,21.20
2023-01-29T03:39:42.856Z,21.50
2023-01-29T03:42:30.063Z,21.95
2023-01-29T03:45:32.274Z,19.95
2023-01-29T03:47:59.028Z,22.00
2023-01-29T03:50:26.004Z,21.67
2023-01-29T03:53:08.539Z,21.30
2023-01-29T03:55:42.449Z,21.77
2023-01-29T03:58:50.567Z,20.85
2023-01-29T04:01:33.484Z,22.67
2023-01-29T04:04:14.988Z,20.13
2023-01-29T04:06:45.735Z,20.42
2023-01-29T04:09:34.148Z,21.77
2023-01-29T04:12:09.081Z,22.02
2023-01-29T04:14:37.136Z,20.52
2023-01-29T04:17:12.380Z,21.92
2023-01-29T04:19:39.741Z,21.23
2023-01-29T04:22:15.510Z,22.52
2023-01-29T04:24:43.008Z,22.67
2023-01-29T04:27:09.786Z,20.77
2023-01-29T04:30:03.149Z,21.08
2023-01-29T04:32:48.122Z,20.88
2023-01-29T04:35:48.891Z,20.38
2023-01-29T04:38:33.897Z,20.40
2023-01-29T04:41:22.368Z,21.23
2023-01-29T04:44:11.248Z,20.83
2023-01-29T04:46:57.699Z,22.25
2023-01-29T04:49:34.423Z,21.13
2023-01-29T04:52:06.449Z,20.58
2023-01-29T04:54:57.757Z,20.75
2023-01-29T04:57:50.722Z,23.42
2023-01-29T05:00:28.641Z,22.98
2023-01-29T05:02:57.089Z,23.02
2023-01-29T05:05:23.910Z,23.20
2023-01-29T05:07:51.449Z,21.17
2023-01-29T05:10:20.994Z,20.65
2023-01-29T05:15:23.167Z,21.60
2023-01-29T05:17:50.037Z,23.48
2023-01-29T05:20:17.650Z,23.00
2023-01-29T05:22:45.820Z,23.23
2023-01-29T05:25:26.066Z,23.17
2023-01-29T05:28:14.042Z,21.83
2023-01-29T05:30:40.936Z,22.35
2023-01-29T05:33:13.846Z,21.40
2023-01-29T05:35:41.093Z,22.65
2023-01-29T05:38:08.365Z,23.23
2023-01-29T05:40:35.945Z,22.80
2023-01-29T05:43:02.874Z,21.35
2023-01-29T05:45:29.790Z,22.70
2023-01-29T05:48:00.370Z,22.25
2023-01-29T05:50:27.890Z,24.27
2023-01-29T05:53:02.011Z,23.98
2023-01-29T05:55:29.757Z,23.52
2023-01-29T05:57:56.716Z,21.80
2023-01-29T06:00:23.872Z,24.70
2023-01-29T06:02:50.843Z,22.50
2023-01-29T06:05:17.784Z,22.52
2023-01-29T06:07:45.647Z,23.92
2023-01-29T06:10:18.029Z,24.15
2023-01-29T06:12:45.684Z,23.98
2023-01-29T06:15:15.349Z,25.55
2023-01-29T06:17:42.912Z,22.10
2023-01-29T06:20:10.566Z,23.75
2023-01-29T06:22:37.454Z,23.60
2023-01-29T06:25:04.710Z,23.17
2023-01-29T06:27:31.559Z,23.00
2023-01-29T06:29:58.444Z,21.60
2023-01-29T06:32:25.350Z,22.63
2023-01-29T06:34:53.219Z,23.13
2023-01-29T06:37:20.020Z,24.48
2023-01-29T06:39:46.860Z,24.58
2023-01-29T06:42:13.655Z,25.63
2023-01-29T06:44:40.535Z,24.70
2023-01-29T06:47:07.352Z,26.27
2023-01-29T06:49:34.271Z,25.10
2023-01-29T06:52:01.159Z,23.77
2023-01-29T06:54:28.083Z,24.63
2023-01-29T06:56:56.241Z,25.67
2023-01-29T06:59:23.046Z,24.65
2023-01-29T07:01:49.989Z,25.65
2023-01-29T07:04:16.892Z,25.63
2023-01-29T07:06:44.368Z,25.42
2023-01-29T07:09:14.479Z,25.13
2023-01-29T07:11:41.575Z,26.15
2023-01-29T07:14:08.423Z,24.95
2023-01-29T07:16:35.389Z,25.55
2023-01-29T07:19:02.402Z,25.73
2023-01-29T07:21:29.549Z,25.20
2023-01-29T07:23:56.507Z,24.52
2023-01-29T07:26:23.364Z,24.48
2023-01-29T07:28:50.368Z,25.15
2023-01-29T07:31:17.339Z,23.50
2023-01-29T07:33:44.699Z,24.92
2023-01-29T07:36:13.028Z,23.08
2023-01-29T07:38:39.890Z,24.98
2023-01-29T07:41:07.152Z,24.15
2023-01-29T07:43:34.030Z,25.65
2023-01-29T07:46:05.195Z,23.85
2023-01-29T07:48:32.478Z,25.08
2023-01-29T07:50:59.685Z,24.50
2023-01-29T07:53:28.105Z,25.45
2023-01-29T07:55:55.330Z,24.05
2023-01-29T07:58:22.349Z,23.48
2023-01-29T08:00:49.558Z,25.85
2023-01-29T08:03:20.016Z,24.60
2023-01-29T08:05:47.171Z,23.15
2023-01-29T08:08:14.572Z,25.38
2023-01-29T08:10:41.912Z,23.35
2023-01-29T08:13:09.316Z,24.10
2023-01-29T08:15:38.761Z,24.70
2023-01-29T08:18:06.517Z,23.35
2023-01-29T08:20:33.604Z,23.30
2023-01-29T08:23:06.032Z,24.77
2023-01-29T08:25:33.872Z,23.20
2023-01-29T08:28:01.133Z,24.65
2023-01-29T08:30:30.671Z,23.23
2023-01-29T08:35:24.711Z,22.85
2023-01-29T08:37:59.996Z,25.38
2023-01-29T08:40:28.675Z,23.00
2023-01-29T08:43:04.065Z,23.83
2023-01-29T08:45:34.779Z,24.75
2023-01-29T08:48:02.189Z,24.30
2023-01-29T08:50:30.819Z,23.13
2023-01-29T08:52:59.407Z,23.70
2023-01-29T08:55:26.920Z,24.83
2023-01-29T08:57:53.971Z,23.70
2023-01-29T09:00:21.316Z,24.48
2023-01-29T09:02:48.267Z,24.25
2023-01-29T09:05:15.639Z,23.75
2023-01-29T09:07:43.084Z,24.23
2023-01-29T09:10:11.900Z,23.55
2023-01-29T09:12:38.869Z,25.70
2023-01-29T09:15:06.059Z,24.20
2023-01-29T09:17:32.881Z,23.88
2023-01-29T09:19:59.777Z,23.77
2023-01-29T09:22:26.627Z,24.58
2023-01-29T09:24:53.489Z,23.60
2023-01-29T09:27:20.326Z,25.45
2023-01-29T09:29:47.128Z,22.77
2023-01-29T09:32:14.678Z,24.88
2023-01-29T09:34:42.424Z,24.30
2023-01-29T09:37:09.382Z,25.08
2023-01-29T09:39:36.368Z,24.48
2023-01-29T09:42:21.307Z,25.10
2023-01-29T09:45:10.822Z,24.88
2023-01-29T09:47:37.805Z,25.25
2023-01-29T09:50:07.660Z,24.73
2023-01-29T09:52:48.119Z,25.23
2023-01-29T09:57:50.937Z,24.13
2023-01-29T10:00:24.596Z,23.73
2023-01-29T10:03:19.435Z,24.48
2023-01-29T10:06:14.187Z,24.38
2023-01-29T10:08:59.401Z,25.02
2023-01-29T10:11:38.357Z,23.23
2023-01-29T10:14:22.821Z,24.73
2023-01-29T10:17:07.031Z,24.15
2023-01-29T10:19:36.790Z,23.92
2023-01-29T10:22:25.663Z,24.90
2023-01-29T10:25:04.173Z,22.67
2023-01-29T10:27:38.595Z,23.85
2023-01-29T10:30:37.322Z,22.95
2023-01-29T10:33:07.141Z,23.63
2023-01-29T10:35:42.228Z,22.35
2023-01-29T10:38:46.104Z,23.45
2023-01-29T10:41:41.765Z,23.15
2023-01-29T10:44:23.319Z,23.63
2023-01-29T10:47:10.417Z,23.73
2023-01-29T10:50:08.213Z,23.38
2023-01-29T10:53:12.030Z,23.40
2023-01-29T10:55:43.862Z,22.38
2023-01-29T10:58:30.499Z,22.67
2023-01-29T11:00:58.367Z,22.52
2023-01-29T11:03:29.107Z,22.33
2023-01-29T11:06:11.817Z,24.70
2023-01-29T11:09:09.757Z,22.77
2023-01-29T11:11:43.223Z,21.98
2023-01-29T11:14:48.549Z,23.80
2023-01-29T11:17:21.026Z,23.17
2023-01-29T11:19:51.776Z,24.92
2023-01-29T11:22:20.768Z,22.60
2023-01-29T11:25:16.017Z,22.83
2023-01-29T11:27:52.460Z,21.98
2023-01-29T11:30:30.526Z,22.23
2023-01-29T11:33:08.203Z,23.60
2023-01-29T11:35:36.918Z,21.45
2023-01-29T11:38:09.059Z,22.60
2023-01-29T11:40:40.975Z,23.67
2023-01-29T11:43:19.859Z,23.10
2023-01-29T11:45:48.945Z,21.30
2023-01-29T11:48:19.638Z,21.67
2023-01-29T11:51:00.819Z,23.60
2023-01-29T11:53:42.035Z,21.92
2023-01-29T11:56:32.407Z,23.25
2023-01-29T11:59:02.244Z,22.93
2023-01-29T12:01:41.250Z,22.73
2023-01-29T12:04:24.447Z,22.92
2023-01-29T12:06:54.022Z,25.15
2023-01-29T12:11:49.368Z,22.45
2023-01-29T12:14:33.535Z,27.30
2023-01-29T12:17:25.587Z,23.13
2023-01-29T12:20:00.135Z,24.67
2023-01-29T12:22:39.742Z,23.40
2023-01-29T12:25:44.488Z,24.05
2023-01-29T12:28:28.268Z,24.73
2023-01-29T12:31:18.871Z,23.92
2023-01-29T12:33:57.403Z,26.20
2023-01-29T12:36:36.278Z,25.90
2023-01-29T12:39:03.097Z,26.08
2023-01-29T12:41:54.730Z,23.90
2023-01-29T12:44:42.465Z,25.02
2023-01-29T12:47:20.265Z,24.15
2023-01-29T12:49:53.003Z,25.80
2023-01-29T12:52:29.728Z,23.13
2023-01-29T12:55:06.567Z,24.50
2023-01-29T12:58:04.924Z,23.73
2023-01-29T13:00:44.874Z,26.48
2023-01-29T13:03:18.098Z,28.90
2023-01-29T13:05:57.523Z,27.30
2023-01-29T13:08:29.442Z,29.00
2023-01-29T13:10:58.611Z,30.48
2023-01-29T13:13:54.024Z,27.42
2023-01-29T13:16:26.051Z,26.77
2023-01-29T13:18:58.060Z,28.15
2023-01-29T13:21:31.132Z,27.10
2023-01-29T13:24:07.410Z,30.13
2023-01-29T13:26:34.494Z,29.45
2023-01-29T13:29:02.489Z,28.52
2023-01-29T13:31:39.145Z,29.40
2023-01-29T13:34:21.109Z,30.63
2023-01-29T13:37:12.579Z,30.77
2023-01-29T13:39:46.531Z,31.83
2023-01-29T13:42:20.005Z,32.10
2023-01-29T13:44:53.452Z,34.15
2023-01-29T13:47:30.955Z,36.65
2023-01-29T13:50:02.549Z,33.00
2023-01-29T13:52:43.100Z,35.75
2023-01-29T13:55:18.752Z,36.83
2023-01-29T13:57:48.938Z,41.80
2023-01-29T14:00:21.876Z,38.53
2023-01-29T14:03:11.239Z,38.72
2023-01-29T14:05:43.446Z,37.20
2023-01-29T14:08:13.121Z,38.58
2023-01-29T14:10:42.532Z,41.28
2023-01-29T14:13:18.694Z,33.25
2023-01-29T14:15:59.247Z,36.35
2023-01-29T14:18:28.242Z,37.13
2023-01-29T14:21:19.736Z,34.80
2023-01-29T14:23:52.467Z,37.83
2023-01-29T14:26:28.384Z,32.15
2023-01-29T14:29:25.610Z,35.67
2023-01-29T14:32:00.702Z,36.00
2023-01-29T14:34:31.653Z,34.78
2023-01-29T14:37:35.622Z,36.97
2023-01-29T14:40:24.231Z,33.10
2023-01-29T14:43:02.476Z,33.20
2023-01-29T14:45:41.952Z,33.08
2023-01-29T14:48:11.991Z,32.23
2023-01-29T14:50:46.622Z,34.50
2023-01-29T14:53:51.083Z,33.13
2023-01-29T14:56:37.195Z,31.48
2023-01-29T14:59:20.095Z,33.30
2023-01-29T15:01:58.791Z,34.63
2023-01-29T15:04:29.470Z,35.42
2023-01-29T15:07:14.571Z,34.67
2023-01-29T15:10:22.529Z,34.38
2023-01-29T15:12:58.256Z,35.20
2023-01-29T15:15:51.877Z,35.67
2023-01-29T15:18:28.715Z,34.22
2023-01-29T15:21:11.823Z,33.97
2023-01-29T15:23:40.819Z,35.67
2023-01-29T15:26:12.038Z,35.90
2023-01-29T15:28:39.842Z,36.80
2023-01-29T15:31:13.215Z,39.50
2023-01-29T15:33:44.719Z,32.70
2023-01-29T15:36:27.726Z,37.60
2023-01-29T15:39:09.972Z,36.30
2023-01-29T15:41:36.862Z,35.67
2023-01-29T15:44:03.869Z,33.92
2023-01-29T15:46:35.281Z,36.58
2023-01-29T15:49:08.549Z,35.40
2023-01-29T15:51:38.006Z,37.35
2023-01-29T15:54:09.607Z,35.53
2023-01-29T15:56:48.218Z,36.28
2023-01-29T15:59:22.479Z,33.10
2023-01-29T16:01:49.453Z,36.67
2023-01-29T16:04:29.003Z,35.88
2023-01-29T16:06:58.073Z,36.13
2023-01-29T16:09:27.286Z,35.58
2023-01-29T16:11:58.497Z,36.85
2023-01-29T16:14:26.800Z,36.67
2023-01-29T16:16:54.114Z,34.22
2023-01-29T16:19:24.341Z,35.50
2023-01-29T16:21:59.080Z,35.78
2023-01-29T16:24:26.908Z,31.92
2023-01-29T16:27:03.549Z,34.67
2023-01-29T16:29:32.903Z,34.55
2023-01-29T16:32:02.688Z,35.47
2023-01-29T16:34:33.935Z,35.30
2023-01-29T16:37:04.404Z,35.38
2023-01-29T16:39:38.828Z,36.25
2023-01-29T16:42:19.838Z,36.00
2023-01-29T16:44:46.709Z,36.45
2023-01-29T16:47:20.711Z,35.47
2023-01-29T16:49:53.840Z,33.97
2023-01-29T16:52:32.694Z,34.45
2023-01-29T16:55:02.368Z,33.80
2023-01-29T17:00:01.770Z,33.95
2023-01-29T17:02:36.396Z,31.35
2023-01-29T17:05:09.772Z,34.42
2023-01-29T17:07:37.792Z,33.22
2023-01-29T17:10:06.691Z,34.08
2023-01-29T17:12:36.279Z,35.40
2023-01-29T17:15:26.050Z,34.22
2023-01-29T17:17:53.014Z,33.22
2023-01-29T17:20:19.966Z,34.28
2023-01-29T17:22:47.319Z,34.08
2023-01-29T17:25:14.793Z,34.55
2023-01-29T17:27:45.166Z,33.35
2023-01-29T17:30:17.233Z,32.85
2023-01-29T17:32:47.320Z,33.05
2023-01-29T17:35:16.395Z,34.20
2023-01-29T17:37:44.425Z,33.90
2023-01-29T17:40:28.488Z,31.23
2023-01-29T17:42:55.353Z,34.80
2023-01-29T17:45:22.460Z,33.50
2023-01-29T17:47:50.294Z,33.50
2023-01-29T17:50:27.204Z,33.92
2023-01-29T17:52:54.230Z,32.63
2023-01-29T17:55:23.143Z,32.85
2023-01-29T17:57:50.076Z,34.65
2023-01-29T18:00:22.569Z,33.40
2023-01-29T18:02:49.701Z,32.97
2023-01-29T18:05:20.578Z,34.35
2023-01-29T18:07:48.092Z,33.72
2023-01-29T18:10:20.996Z,34.47
2023-01-29T18:12:48.114Z,32.00
2023-01-29T18:15:18.201Z,35.10
2023-01-29T18:17:45.656Z,33.53
2023-01-29T18:20:36.626Z,35.85
2023-01-29T18:23:04.347Z,34.53
2023-01-29T18:25:31.737Z,33.10
2023-01-29T18:27:58.602Z,33.85
2023-01-29T18:30:25.725Z,31.38
2023-01-29T18:32:53.397Z,34.30
2023-01-29T18:35:20.743Z,34.50
2023-01-29T18:37:51.483Z,32.92
2023-01-29T18:40:18.646Z,34.05
2023-01-29T18:42:47.096Z,34.30
2023-01-29T18:45:15.540Z,32.13
2023-01-29T18:47:42.739Z,34.00
2023-01-29T18:50:11.328Z,31.80
2023-01-29T18:52:38.200Z,32.88
2023-01-29T18:55:05.355Z,31.25
2023-01-29T18:58:29.578Z,32.17
2023-01-29T19:00:20.856Z,30.92
2023-01-29T19:02:47.782Z,33.17
2023-01-29T19:05:15.614Z,31.17
2023-01-29T19:07:42.597Z,33.35
2023-01-29T19:10:12.862Z,36.35
2023-01-29T19:12:42.231Z,32.88
2023-01-29T19:15:10.469Z,32.58
2023-01-29T19:17:38.340Z,35.53
2023-01-29T19:20:11.855Z,34.72
2023-01-29T19:22:40.335Z,34.13
2023-01-29T19:25:07.832Z,33.40
2023-01-29T19:27:34.892Z,34.25
2023-01-29T19:30:02.836Z,32.25
2023-01-29T19:32:30.180Z,34.05
2023-01-29T19:34:57.841Z,35.08
2023-01-29T19:37:25.530Z,35.28
2023-01-29T19:39:53.792Z,32.30
2023-01-29T19:42:21.607Z,34.17
2023-01-29T19:44:49.074Z,33.50
2023-01-29T19:47:16.104Z,32.80
2023-01-29T19:49:43.156Z,35.17
2023-01-29T19:52:14.946Z,33.60
2023-01-29T19:54:48.868Z,32.65
2023-01-29T19:57:15.680Z,34.08
2023-01-29T19:59:45.659Z,33.25
2023-01-29T20:02:12.792Z,30.98
2023-01-29T20:04:39.643Z,33.25
2023-01-29T20:07:06.513Z,33.30
2023-01-29T20:09:33.423Z,31.42
2023-01-29T20:12:00.297Z,33.58
2023-01-29T20:14:27.460Z,33.10
2023-01-29T20:16:54.305Z,32.05
2023-01-29T20:19:21.168Z,31.48
2023-01-29T20:21:51.160Z,31.67
2023-01-29T20:24:18.048Z,32.47
2023-01-29T20:26:45.091Z,31.35
2023-01-29T20:29:12.072Z,31.58
2023-01-29T20:31:39.083Z,31.77
2023-01-29T20:34:06.094Z,31.77
2023-01-29T20:36:33.048Z,30.27
2023-01-29T20:38:59.993Z,31.15
2023-01-29T20:41:27.116Z,31.80
2023-01-29T20:43:54.350Z,31.55
2023-01-29T20:46:21.319Z,29.88
2023-01-29T20:48:49.462Z,31.98
2023-01-29T20:51:18.186Z,30.90
2023-01-29T20:53:46.908Z,30.73
2023-01-29T20:56:16.108Z,28.83
2023-01-29T20:58:43.583Z,30.27
2023-01-29T21:01:12.097Z,30.35
2023-01-29T21:03:40.228Z,29.80
2023-01-29T21:06:08.833Z,30.27
2023-01-29T21:08:36.776Z,29.67
2023-01-29T21:11:05.011Z,27.80
2023-01-29T21:13:31.905Z,29.45
2023-01-29T21:15:59.771Z,28.40
2023-01-29T21:18:27.002Z,29.60
2023-01-29T21:20:54.544Z,27.48
2023-01-29T21:23:21.891Z,30.38
2023-01-29T21:25:48.843Z,29.60
2023-01-29T21:28:16.155Z,31.25
2023-01-29T21:30:43.844Z,31.58
2023-01-29T21:33:10.716Z,29.65
2023-01-29T21:35:38.445Z,31.20
2023-01-29T21:38:05.493Z,30.13
2023-01-29T21:40:32.592Z,30.98
2023-01-29T21:43:11.649Z,29.83
2023-01-29T21:45:39.877Z,30.63
2023-01-29T21:48:07.309Z,30.60
2023-01-29T21:50:34.841Z,30.67
2023-01-29T21:53:01.782Z,28.20
2023-01-29T21:55:29.004Z,31.20
2023-01-29T21:57:55.897Z,31.75
2023-01-29T22:00:22.769Z,31.30
2023-01-29T22:02:51.484Z,28.02
2023-01-29T22:05:20.145Z,28.63
2023-01-29T22:07:50.527Z,33.28
2023-01-29T22:10:18.872Z,32.60
2023-01-29T22:12:46.988Z,31.02
2023-01-29T22:15:14.673Z,31.63
2023-01-29T22:17:42.229Z,30.23
2023-01-29T22:20:10.848Z,30.90
2023-01-29T22:22:37.814Z,32.13
2023-01-29T22:25:05.439Z,31.60
2023-01-29T22:27:33.608Z,31.63
2023-01-29T22:30:00.536Z,30.15
2023-01-29T22:32:27.952Z,32.53
2023-01-29T22:34:54.834Z,29.67
2023-01-29T22:37:21.794Z,31.70
2023-01-29T22:39:48.696Z,31.15
2023-01-29T22:42:15.461Z,30.33
2023-01-29T22:44:42.772Z,32.13
2023-01-29T22:47:09.633Z,30.42
2023-01-29T22:49:36.497Z,31.42
2023-01-29T22:52:12.358Z,30.92
2023-01-29T22:54:40.675Z,30.38
2023-01-29T22:57:12.906Z,31.13
2023-01-29T22:59:40.091Z,27.45
2023-01-29T23:02:07.812Z,30.85
2023-01-29T23:04:34.766Z,29.80
2023-01-29T23:07:01.753Z,31.85
2023-01-29T23:09:28.816Z,30.73
2023-01-29T23:11:55.649Z,29.30
2023-01-29T23:14:22.506Z,30.70
2023-01-29T23:16:49.469Z,29.92
2023-01-29T23:19:16.353Z,30.98
2023-01-29T23:21:43.465Z,31.80
2023-01-29T23:24:10.917Z,34.25
2023-01-29T23:26:56.350Z,32.95
2023-01-29T23:29:23.306Z,32.45
2023-01-29T23:31:50.201Z,30.92
2023-01-29T23:34:17.363Z,30.70
2023-01-29T23:36:46.206Z,31.65
2023-01-29T23:39:13.054Z,31.67
2023-01-29T23:41:39.988Z,31.38
2023-01-29T23:44:07.018Z,31.60
2023-01-29T23:46:34.034Z,33.35
2023-01-29T23:49:01.071Z,32.38
2023-01-29T23:51:28.082Z,32.20
2023-01-29T23:53:55.046Z,32.85
2023-01-29T23:56:21.919Z,32.70
2023-01-29T23:58:53.139Z,33.20
